sensor_id;sensor_type;location;lat;lon;timestamp;P1;durP1;ratioP1;P2;durP2;ratioP2
28613;SDS011;15806;53.548;9.964;2023-04-15T00:01:25;7.53;;;2.93;;
28613;SDS011;15806;53.548;9.964;2023-04-15T00:03:05;6.10;;;2.93;;
28613;SDS011;15806;53.548;9.964;2023-04-15T00:04:46;6.70;;;3.00;;
28613;SDS011;15806;53.548;9.964;2023-04-15T00:06:27;9.77;;;3.70;;
28613;SDS011;15806;53.548;9.964;2023-04-15T00:08:07;6.80;;;3.13;;
28613;SDS011;15806;53.548;9.964;2023-04-15T00:09:48;5.33;;;2.80;;
28613;SDS011;15806;53.548;9.964;2023-04-15T00:11:28;9.07;;;4.03;;
28613;SDS011;15806;53.548;9.964;2023-04-15T00:13:09;5.47;;;2.50;;
28613;SDS011;15806;53.548;9.964;2023-04-15T00:14:49;7.00;;;3.00;;
28613;SDS011;15806;53.548;9.964;2023-04-15T00:16:30;5.67;;;2.90;;
28613;SDS011;15806;53.548;9.964;2023-04-15T00:18:10;6.20;;;3.13;;
28613;SDS011;15806;53.548;9.964;2023-04-15T00:19:51;5.60;;;2.80;;
28613;SDS011;15806;53.548;9.964;2023-04-15T00:21:31;6.70;;;3.07;;
28613;SDS011;15806;53.548;9.964;2023-04-15T00:23:12;7.67;;;3.07;;
28613;SDS011;15806;53.548;9.964;2023-04-15T00:24:52;6.37;;;2.87;;
28613;SDS011;15806;53.548;9.964;2023-04-15T00:26:33;6.53;;;2.90;;
28613;SDS011;15806;53.548;9.964;2023-04-15T00:28:13;7.03;;;2.77;;
28613;SDS011;15806;53.548;9.964;2023-04-15T00:29:54;6.10;;;2.77;;
28613;SDS011;15806;53.548;9.964;2023-04-15T00:31:34;6.03;;;2.70;;
28613;SDS011;15806;53.548;9.964;2023-04-15T00:33:15;5.07;;;2.43;;
28613;SDS011;15806;53.548;9.964;2023-04-15T00:34:55;5.47;;;2.63;;
28613;SDS011;15806;53.548;9.964;2023-04-15T00:36:36;8.87;;;3.20;;
28613;SDS011;15806;53.548;9.964;2023-04-15T00:38:16;7.10;;;3.17;;
28613;SDS011;15806;53.548;9.964;2023-04-15T00:39:57;5.70;;;2.90;;
28613;SDS011;15806;53.548;9.964;2023-04-15T00:41:37;5.23;;;2.67;;
28613;SDS011;15806;53.548;9.964;2023-04-15T00:43:18;7.80;;;2.87;;
28613;SDS011;15806;53.548;9.964;2023-04-15T00:44:58;7.47;;;3.30;;
28613;SDS011;15806;53.548;9.964;2023-04-15T00:46:39;5.30;;;3.03;;
28613;SDS011;15806;53.548;9.964;2023-04-15T00:48:21;6.75;;;2.38;;
28613;SDS011;15806;53.548;9.964;2023-04-15T00:50:02;4.03;;;2.07;;
28613;SDS011;15806;53.548;9.964;2023-04-15T00:51:43;9.70;;;2.43;;
28613;SDS011;15806;53.548;9.964;2023-04-15T00:53:23;5.30;;;2.73;;
28613;SDS011;15806;53.548;9.964;2023-04-15T00:55:04;5.93;;;2.57;;
28613;SDS011;15806;53.548;9.964;2023-04-15T00:58:26;7.57;;;2.65;;
28613;SDS011;15806;53.548;9.964;2023-04-15T01:00:06;9.37;;;2.53;;
28613;SDS011;15806;53.548;9.964;2023-04-15T01:01:48;7.80;;;2.67;;
28613;SDS011;15806;53.548;9.964;2023-04-15T01:03:29;10.25;;;2.72;;
28613;SDS011;15806;53.548;9.964;2023-04-15T01:05:10;5.13;;;2.43;;
28613;SDS011;15806;53.548;9.964;2023-04-15T01:06:50;6.03;;;3.10;;
28613;SDS011;15806;53.548;9.964;2023-04-15T01:08:31;9.63;;;3.33;;
28613;SDS011;15806;53.548;9.964;2023-04-15T01:10:11;8.63;;;3.53;;
28613;SDS011;15806;53.548;9.964;2023-04-15T01:11:52;6.53;;;2.90;;
28613;SDS011;15806;53.548;9.964;2023-04-15T01:13:33;4.50;;;2.40;;
28613;SDS011;15806;53.548;9.964;2023-04-15T01:15:13;7.20;;;3.10;;
28613;SDS011;15806;53.548;9.964;2023-04-15T01:16:54;6.47;;;3.08;;
28613;SDS011;15806;53.548;9.964;2023-04-15T01:18:35;8.57;;;2.97;;
28613;SDS011;15806;53.548;9.964;2023-04-15T01:20:16;6.85;;;2.92;;
28613;SDS011;15806;53.548;9.964;2023-04-15T01:21:57;6.53;;;3.30;;
28613;SDS011;15806;53.548;9.964;2023-04-15T01:23:38;5.33;;;2.50;;
28613;SDS011;15806;53.548;9.964;2023-04-15T01:25:19;5.45;;;2.80;;
28613;SDS011;15806;53.548;9.964;2023-04-15T01:27:11;5.93;;;2.70;;
28613;SDS011;15806;53.548;9.964;2023-04-15T01:28:51;7.03;;;2.60;;
28613;SDS011;15806;53.548;9.964;2023-04-15T01:30:35;5.87;;;2.73;;
28613;SDS011;15806;53.548;9.964;2023-04-15T01:32:15;5.45;;;2.65;;
28613;SDS011;15806;53.548;9.964;2023-04-15T01:33:56;6.70;;;3.13;;
28613;SDS011;15806;53.548;9.964;2023-04-15T01:35:36;6.23;;;3.30;;
28613;SDS011;15806;53.548;9.964;2023-04-15T01:37:17;5.63;;;2.73;;
28613;SDS011;15806;53.548;9.964;2023-04-15T01:38:57;10.87;;;4.63;;
28613;SDS011;15806;53.548;9.964;2023-04-15T01:40:38;7.00;;;3.17;;
28613;SDS011;15806;53.548;9.964;2023-04-15T01:42:20;7.87;;;3.13;;
28613;SDS011;15806;53.548;9.964;2023-04-15T01:44:00;9.30;;;3.85;;
28613;SDS011;15806;53.548;9.964;2023-04-15T01:45:41;10.07;;;3.30;;
28613;SDS011;15806;53.548;9.964;2023-04-15T01:47:21;7.30;;;3.90;;
28613;SDS011;15806;53.548;9.964;2023-04-15T01:49:02;8.33;;;4.23;;
28613;SDS011;15806;53.548;9.964;2023-04-15T01:50:43;7.83;;;3.63;;
28613;SDS011;15806;53.548;9.964;2023-04-15T01:52:24;7.28;;;3.67;;
28613;SDS011;15806;53.548;9.964;2023-04-15T01:54:04;6.60;;;3.07;;
28613;SDS011;15806;53.548;9.964;2023-04-15T01:55:46;6.72;;;3.30;;
28613;SDS011;15806;53.548;9.964;2023-04-15T01:57:27;5.83;;;3.10;;
28613;SDS011;15806;53.548;9.964;2023-04-15T01:59:07;7.80;;;3.20;;
28613;SDS011;15806;53.548;9.964;2023-04-15T02:00:48;7.20;;;3.30;;
28613;SDS011;15806;53.548;9.964;2023-04-15T02:02:28;5.30;;;2.97;;
28613;SDS011;15806;53.548;9.964;2023-04-15T02:04:09;5.83;;;2.63;;
28613;SDS011;15806;53.548;9.964;2023-04-15T02:05:49;6.70;;;2.90;;
28613;SDS011;15806;53.548;9.964;2023-04-15T02:07:30;8.20;;;3.60;;
28613;SDS011;15806;53.548;9.964;2023-04-15T02:09:10;9.63;;;3.30;;
28613;SDS011;15806;53.548;9.964;2023-04-15T02:10:51;9.83;;;3.97;;
28613;SDS011;15806;53.548;9.964;2023-04-15T02:12:31;14.13;;;3.63;;
28613;SDS011;15806;53.548;9.964;2023-04-15T02:14:12;6.87;;;3.63;;
28613;SDS011;15806;53.548;9.964;2023-04-15T02:15:53;6.77;;;3.40;;
28613;SDS011;15806;53.548;9.964;2023-04-15T02:17:34;9.18;;;3.45;;
28613;SDS011;15806;53.548;9.964;2023-04-15T02:19:15;8.35;;;3.90;;
28613;SDS011;15806;53.548;9.964;2023-04-15T02:20:55;8.07;;;3.40;;
28613;SDS011;15806;53.548;9.964;2023-04-15T02:22:36;8.17;;;3.33;;
28613;SDS011;15806;53.548;9.964;2023-04-15T02:24:16;7.83;;;3.07;;
28613;SDS011;15806;53.548;9.964;2023-04-15T02:25:57;8.57;;;3.23;;
28613;SDS011;15806;53.548;9.964;2023-04-15T02:27:37;9.07;;;4.10;;
28613;SDS011;15806;53.548;9.964;2023-04-15T02:29:18;6.90;;;3.30;;
28613;SDS011;15806;53.548;9.964;2023-04-15T02:31:05;9.80;;;3.80;;
28613;SDS011;15806;53.548;9.964;2023-04-15T02:32:51;7.40;;;3.58;;
28613;SDS011;15806;53.548;9.964;2023-04-15T02:34:32;7.32;;;3.53;;
28613;SDS011;15806;53.548;9.964;2023-04-15T02:36:12;7.37;;;3.10;;
28613;SDS011;15806;53.548;9.964;2023-04-15T02:37:53;8.47;;;3.73;;
28613;SDS011;15806;53.548;9.964;2023-04-15T02:39:34;10.20;;;4.30;;
28613;SDS011;15806;53.548;9.964;2023-04-15T02:41:14;9.60;;;3.90;;
28613;SDS011;15806;53.548;9.964;2023-04-15T02:42:55;8.17;;;3.90;;
28613;SDS011;15806;53.548;9.964;2023-04-15T02:44:35;19.43;;;6.77;;
28613;SDS011;15806;53.548;9.964;2023-04-15T02:46:16;10.70;;;4.70;;
28613;SDS011;15806;53.548;9.964;2023-04-15T02:47:56;10.57;;;4.93;;
28613;SDS011;15806;53.548;9.964;2023-04-15T02:49:37;9.30;;;4.13;;
28613;SDS011;15806;53.548;9.964;2023-04-15T02:51:18;8.33;;;3.73;;
28613;SDS011;15806;53.548;9.964;2023-04-15T02:53:00;10.27;;;4.32;;
28613;SDS011;15806;53.548;9.964;2023-04-15T02:54:40;10.07;;;4.23;;
28613;SDS011;15806;53.548;9.964;2023-04-15T02:56:21;9.30;;;4.33;;
28613;SDS011;15806;53.548;9.964;2023-04-15T02:58:01;9.37;;;4.10;;
28613;SDS011;15806;53.548;9.964;2023-04-15T02:59:42;11.20;;;5.00;;
28613;SDS011;15806;53.548;9.964;2023-04-15T03:01:22;8.97;;;4.10;;
28613;SDS011;15806;53.548;9.964;2023-04-15T03:03:03;8.43;;;4.13;;
28613;SDS011;15806;53.548;9.964;2023-04-15T03:04:44;10.15;;;3.97;;
28613;SDS011;15806;53.548;9.964;2023-04-15T03:06:25;11.67;;;4.53;;
28613;SDS011;15806;53.548;9.964;2023-04-15T03:08:05;9.13;;;4.20;;
28613;SDS011;15806;53.548;9.964;2023-04-15T03:09:46;8.07;;;3.90;;
28613;SDS011;15806;53.548;9.964;2023-04-15T03:11:27;8.80;;;3.73;;
28613;SDS011;15806;53.548;9.964;2023-04-15T03:13:08;10.70;;;4.60;;
28613;SDS011;15806;53.548;9.964;2023-04-15T03:14:48;10.13;;;3.77;;
28613;SDS011;15806;53.548;9.964;2023-04-15T03:16:29;9.90;;;4.27;;
28613;SDS011;15806;53.548;9.964;2023-04-15T03:18:09;8.93;;;4.13;;
28613;SDS011;15806;53.548;9.964;2023-04-15T03:19:50;11.30;;;4.57;;
28613;SDS011;15806;53.548;9.964;2023-04-15T03:21:30;10.77;;;4.43;;
28613;SDS011;15806;53.548;9.964;2023-04-15T03:23:11;10.03;;;3.83;;
28613;SDS011;15806;53.548;9.964;2023-04-15T03:24:51;10.33;;;4.33;;
28613;SDS011;15806;53.548;9.964;2023-04-15T03:26:32;12.03;;;4.13;;
28613;SDS011;15806;53.548;9.964;2023-04-15T03:28:12;9.73;;;4.03;;
28613;SDS011;15806;53.548;9.964;2023-04-15T03:29:53;10.47;;;4.77;;
28613;SDS011;15806;53.548;9.964;2023-04-15T03:31:33;11.93;;;5.17;;
28613;SDS011;15806;53.548;9.964;2023-04-15T03:33:14;12.03;;;4.93;;
28613;SDS011;15806;53.548;9.964;2023-04-15T03:34:54;9.47;;;4.00;;
28613;SDS011;15806;53.548;9.964;2023-04-15T03:36:35;11.33;;;4.90;;
28613;SDS011;15806;53.548;9.964;2023-04-15T03:38:16;13.03;;;4.13;;
28613;SDS011;15806;53.548;9.964;2023-04-15T03:39:57;11.45;;;4.65;;
28613;SDS011;15806;53.548;9.964;2023-04-15T03:41:37;9.60;;;4.47;;
28613;SDS011;15806;53.548;9.964;2023-04-15T03:43:17;10.53;;;4.10;;
28613;SDS011;15806;53.548;9.964;2023-04-15T03:44:58;11.63;;;4.87;;
28613;SDS011;15806;53.548;9.964;2023-04-15T03:46:38;14.10;;;4.67;;
28613;SDS011;15806;53.548;9.964;2023-04-15T03:48:19;11.67;;;5.03;;
28613;SDS011;15806;53.548;9.964;2023-04-15T03:49:59;10.63;;;5.10;;
28613;SDS011;15806;53.548;9.964;2023-04-15T03:51:40;13.20;;;4.53;;
28613;SDS011;15806;53.548;9.964;2023-04-15T03:53:20;11.63;;;4.53;;
28613;SDS011;15806;53.548;9.964;2023-04-15T03:55:01;14.57;;;5.53;;
28613;SDS011;15806;53.548;9.964;2023-04-15T03:56:42;13.60;;;5.33;;
28613;SDS011;15806;53.548;9.964;2023-04-15T03:58:22;11.07;;;5.33;;
28613;SDS011;15806;53.548;9.964;2023-04-15T04:00:04;12.90;;;4.50;;
28613;SDS011;15806;53.548;9.964;2023-04-15T04:01:45;11.77;;;4.85;;
28613;SDS011;15806;53.548;9.964;2023-04-15T04:03:25;13.33;;;5.30;;
28613;SDS011;15806;53.548;9.964;2023-04-15T04:05:06;11.10;;;4.80;;
28613;SDS011;15806;53.548;9.964;2023-04-15T04:06:47;10.93;;;4.37;;
28613;SDS011;15806;53.548;9.964;2023-04-15T04:08:27;12.60;;;5.43;;
28613;SDS011;15806;53.548;9.964;2023-04-15T04:10:08;11.47;;;4.67;;
28613;SDS011;15806;53.548;9.964;2023-04-15T04:11:48;12.43;;;5.40;;
28613;SDS011;15806;53.548;9.964;2023-04-15T04:13:29;12.90;;;5.13;;
28613;SDS011;15806;53.548;9.964;2023-04-15T04:15:09;16.23;;;5.50;;
28613;SDS011;15806;53.548;9.964;2023-04-15T04:16:50;14.20;;;5.50;;
28613;SDS011;15806;53.548;9.964;2023-04-15T04:18:31;12.13;;;5.43;;
28613;SDS011;15806;53.548;9.964;2023-04-15T04:20:12;18.92;;;6.25;;
28613;SDS011;15806;53.548;9.964;2023-04-15T04:21:52;16.93;;;6.07;;
28613;SDS011;15806;53.548;9.964;2023-04-15T04:23:33;12.50;;;5.33;;
28613;SDS011;15806;53.548;9.964;2023-04-15T04:25:13;12.87;;;5.43;;
28613;SDS011;15806;53.548;9.964;2023-04-15T04:26:54;13.93;;;5.57;;
28613;SDS011;15806;53.548;9.964;2023-04-15T04:28:34;16.13;;;5.63;;
28613;SDS011;15806;53.548;9.964;2023-04-15T04:30:15;14.37;;;5.90;;
28613;SDS011;15806;53.548;9.964;2023-04-15T04:31:55;17.63;;;5.67;;
28613;SDS011;15806;53.548;9.964;2023-04-15T04:33:36;14.30;;;5.37;;
28613;SDS011;15806;53.548;9.964;2023-04-15T04:35:16;21.07;;;6.70;;
28613;SDS011;15806;53.548;9.964;2023-04-15T04:36:57;14.13;;;5.47;;
28613;SDS011;15806;53.548;9.964;2023-04-15T04:38:37;13.80;;;5.83;;
28613;SDS011;15806;53.548;9.964;2023-04-15T04:40:18;17.20;;;7.00;;
28613;SDS011;15806;53.548;9.964;2023-04-15T04:41:58;18.27;;;6.37;;
28613;SDS011;15806;53.548;9.964;2023-04-15T04:43:39;19.47;;;6.93;;
28613;SDS011;15806;53.548;9.964;2023-04-15T04:45:19;16.40;;;6.10;;
28613;SDS011;15806;53.548;9.964;2023-04-15T04:47:00;18.17;;;7.17;;
28613;SDS011;15806;53.548;9.964;2023-04-15T04:48:40;17.77;;;7.30;;
28613;SDS011;15806;53.548;9.964;2023-04-15T04:50:21;16.60;;;6.83;;
28613;SDS011;15806;53.548;9.964;2023-04-15T04:52:01;20.93;;;7.33;;
28613;SDS011;15806;53.548;9.964;2023-04-15T04:53:42;20.03;;;7.63;;
28613;SDS011;15806;53.548;9.964;2023-04-15T04:55:22;22.30;;;8.10;;
28613;SDS011;15806;53.548;9.964;2023-04-15T04:57:03;20.27;;;7.87;;
28613;SDS011;15806;53.548;9.964;2023-04-15T04:58:43;24.73;;;8.97;;
28613;SDS011;15806;53.548;9.964;2023-04-15T05:00:24;17.07;;;7.10;;
28613;SDS011;15806;53.548;9.964;2023-04-15T05:02:05;18.57;;;7.50;;
28613;SDS011;15806;53.548;9.964;2023-04-15T05:03:46;23.33;;;8.05;;
28613;SDS011;15806;53.548;9.964;2023-04-15T05:05:26;23.00;;;8.47;;
28613;SDS011;15806;53.548;9.964;2023-04-15T05:07:07;21.87;;;8.40;;
28613;SDS011;15806;53.548;9.964;2023-04-15T05:08:47;21.30;;;7.67;;
28613;SDS011;15806;53.548;9.964;2023-04-15T05:10:28;22.77;;;7.93;;
28613;SDS011;15806;53.548;9.964;2023-04-15T05:12:08;24.27;;;8.47;;
28613;SDS011;15806;53.548;9.964;2023-04-15T05:13:49;23.50;;;9.10;;
28613;SDS011;15806;53.548;9.964;2023-04-15T05:15:29;25.47;;;9.57;;
28613;SDS011;15806;53.548;9.964;2023-04-15T05:17:10;25.70;;;8.53;;
28613;SDS011;15806;53.548;9.964;2023-04-15T05:18:50;27.33;;;8.50;;
28613;SDS011;15806;53.548;9.964;2023-04-15T05:20:31;25.40;;;8.40;;
28613;SDS011;15806;53.548;9.964;2023-04-15T05:22:11;24.73;;;8.97;;
28613;SDS011;15806;53.548;9.964;2023-04-15T05:23:52;26.47;;;8.83;;
28613;SDS011;15806;53.548;9.964;2023-04-15T05:25:32;26.63;;;8.80;;
28613;SDS011;15806;53.548;9.964;2023-04-15T05:27:13;28.23;;;9.60;;
28613;SDS011;15806;53.548;9.964;2023-04-15T05:28:53;25.43;;;9.03;;
28613;SDS011;15806;53.548;9.964;2023-04-15T05:30:34;28.27;;;9.87;;
28613;SDS011;15806;53.548;9.964;2023-04-15T05:32:14;30.40;;;9.63;;
28613;SDS011;15806;53.548;9.964;2023-04-15T05:33:55;25.40;;;8.80;;
28613;SDS011;15806;53.548;9.964;2023-04-15T05:35:35;30.20;;;10.53;;
28613;SDS011;15806;53.548;9.964;2023-04-15T05:37:16;30.03;;;10.63;;
28613;SDS011;15806;53.548;9.964;2023-04-15T05:38:57;33.50;;;10.87;;
28613;SDS011;15806;53.548;9.964;2023-04-15T05:40:37;29.97;;;9.83;;
28613;SDS011;15806;53.548;9.964;2023-04-15T05:42:18;34.40;;;11.20;;
28613;SDS011;15806;53.548;9.964;2023-04-15T05:43:58;29.37;;;10.83;;
28613;SDS011;15806;53.548;9.964;2023-04-15T05:45:39;30.23;;;9.97;;
28613;SDS011;15806;53.548;9.964;2023-04-15T05:47:19;32.50;;;9.93;;
28613;SDS011;15806;53.548;9.964;2023-04-15T05:49:00;30.97;;;10.77;;
28613;SDS011;15806;53.548;9.964;2023-04-15T05:50:40;30.57;;;10.97;;
28613;SDS011;15806;53.548;9.964;2023-04-15T05:52:21;27.77;;;10.30;;
28613;SDS011;15806;53.548;9.964;2023-04-15T05:54:01;30.77;;;11.50;;
28613;SDS011;15806;53.548;9.964;2023-04-15T05:55:42;35.30;;;12.07;;
28613;SDS011;15806;53.548;9.964;2023-04-15T05:57:22;29.17;;;10.73;;
28613;SDS011;15806;53.548;9.964;2023-04-15T05:59:03;35.07;;;11.17;;
28613;SDS011;15806;53.548;9.964;2023-04-15T06:00:43;26.50;;;9.97;;
28613;SDS011;15806;53.548;9.964;2023-04-15T06:02:24;31.23;;;11.30;;
28613;SDS011;15806;53.548;9.964;2023-04-15T06:04:05;32.13;;;11.17;;
28613;SDS011;15806;53.548;9.964;2023-04-15T06:05:45;33.30;;;12.30;;
28613;SDS011;15806;53.548;9.964;2023-04-15T06:07:26;30.17;;;11.57;;
28613;SDS011;15806;53.548;9.964;2023-04-15T06:09:06;29.70;;;11.07;;
28613;SDS011;15806;53.548;9.964;2023-04-15T06:10:46;28.33;;;11.00;;
28613;SDS011;15806;53.548;9.964;2023-04-15T06:12:27;28.63;;;11.33;;
28613;SDS011;15806;53.548;9.964;2023-04-15T06:14:08;31.13;;;11.90;;
28613;SDS011;15806;53.548;9.964;2023-04-15T06:15:48;29.77;;;11.57;;
28613;SDS011;15806;53.548;9.964;2023-04-15T06:17:29;26.53;;;10.13;;
28613;SDS011;15806;53.548;9.964;2023-04-15T06:19:09;28.57;;;11.57;;
28613;SDS011;15806;53.548;9.964;2023-04-15T06:20:50;29.73;;;10.60;;
28613;SDS011;15806;53.548;9.964;2023-04-15T06:22:30;30.87;;;10.70;;
28613;SDS011;15806;53.548;9.964;2023-04-15T06:24:11;31.87;;;11.57;;
28613;SDS011;15806;53.548;9.964;2023-04-15T06:25:51;29.83;;;11.47;;
28613;SDS011;15806;53.548;9.964;2023-04-15T06:27:32;33.33;;;11.63;;
28613;SDS011;15806;53.548;9.964;2023-04-15T06:29:12;31.93;;;11.33;;
28613;SDS011;15806;53.548;9.964;2023-04-15T06:30:53;35.87;;;12.07;;
28613;SDS011;15806;53.548;9.964;2023-04-15T06:32:34;32.45;;;12.02;;
28613;SDS011;15806;53.548;9.964;2023-04-15T06:34:15;31.43;;;12.20;;
28613;SDS011;15806;53.548;9.964;2023-04-15T06:35:55;33.50;;;12.80;;
28613;SDS011;15806;53.548;9.964;2023-04-15T06:37:36;36.37;;;12.30;;
28613;SDS011;15806;53.548;9.964;2023-04-15T06:39:16;30.77;;;13.20;;
28613;SDS011;15806;53.548;9.964;2023-04-15T06:40:57;35.03;;;13.03;;
28613;SDS011;15806;53.548;9.964;2023-04-15T06:42:37;36.43;;;12.57;;
28613;SDS011;15806;53.548;9.964;2023-04-15T06:44:18;44.17;;;14.20;;
28613;SDS011;15806;53.548;9.964;2023-04-15T06:45:58;39.30;;;14.73;;
28613;SDS011;15806;53.548;9.964;2023-04-15T06:47:39;39.07;;;13.37;;
28613;SDS011;15806;53.548;9.964;2023-04-15T06:49:19;39.80;;;13.70;;
28613;SDS011;15806;53.548;9.964;2023-04-15T06:51:00;36.87;;;14.17;;
28613;SDS011;15806;53.548;9.964;2023-04-15T06:52:40;37.10;;;13.60;;
28613;SDS011;15806;53.548;9.964;2023-04-15T06:54:21;39.97;;;13.37;;
28613;SDS011;15806;53.548;9.964;2023-04-15T06:56:01;37.77;;;14.80;;
28613;SDS011;15806;53.548;9.964;2023-04-15T06:57:42;41.30;;;14.47;;
28613;SDS011;15806;53.548;9.964;2023-04-15T06:59:22;37.50;;;14.03;;
28613;SDS011;15806;53.548;9.964;2023-04-15T07:01:03;36.07;;;14.37;;
28613;SDS011;15806;53.548;9.964;2023-04-15T07:02:44;36.67;;;13.90;;
28613;SDS011;15806;53.548;9.964;2023-04-15T07:04:24;39.83;;;15.33;;
28613;SDS011;15806;53.548;9.964;2023-04-15T07:06:05;41.23;;;14.90;;
28613;SDS011;15806;53.548;9.964;2023-04-15T07:07:45;45.20;;;14.57;;
28613;SDS011;15806;53.548;9.964;2023-04-15T07:09:26;47.00;;;17.33;;
28613;SDS011;15806;53.548;9.964;2023-04-15T07:11:06;45.60;;;16.53;;
28613;SDS011;15806;53.548;9.964;2023-04-15T07:12:47;44.30;;;15.43;;
28613;SDS011;15806;53.548;9.964;2023-04-15T07:14:28;40.13;;;15.50;;
28613;SDS011;15806;53.548;9.964;2023-04-15T07:16:08;49.90;;;17.43;;
28613;SDS011;15806;53.548;9.964;2023-04-15T07:17:49;41.03;;;15.67;;
28613;SDS011;15806;53.548;9.964;2023-04-15T07:19:29;48.07;;;15.47;;
28613;SDS011;15806;53.548;9.964;2023-04-15T07:21:10;42.40;;;15.70;;
28613;SDS011;15806;53.548;9.964;2023-04-15T07:22:50;41.77;;;15.87;;
28613;SDS011;15806;53.548;9.964;2023-04-15T07:24:31;38.97;;;15.87;;
28613;SDS011;15806;53.548;9.964;2023-04-15T07:26:11;45.43;;;15.23;;
28613;SDS011;15806;53.548;9.964;2023-04-15T07:27:52;47.17;;;16.53;;
28613;SDS011;15806;53.548;9.964;2023-04-15T07:29:33;41.22;;;16.85;;
28613;SDS011;15806;53.548;9.964;2023-04-15T07:31:13;47.83;;;17.00;;
28613;SDS011;15806;53.548;9.964;2023-04-15T07:32:54;47.93;;;18.47;;
28613;SDS011;15806;53.548;9.964;2023-04-15T07:34:35;44.80;;;18.10;;
28613;SDS011;15806;53.548;9.964;2023-04-15T07:36:15;43.87;;;16.87;;
28613;SDS011;15806;53.548;9.964;2023-04-15T07:42:25;46.00;;;16.33;;
28613;SDS011;15806;53.548;9.964;2023-04-15T07:44:21;43.55;;;15.65;;
28613;SDS011;15806;53.548;9.964;2023-04-15T07:46:01;47.97;;;17.70;;
28613;SDS011;15806;53.548;9.964;2023-04-15T07:47:42;43.47;;;17.00;;
28613;SDS011;15806;53.548;9.964;2023-04-15T07:49:22;46.57;;;17.40;;
28613;SDS011;15806;53.548;9.964;2023-04-15T07:51:03;45.47;;;15.60;;
28613;SDS011;15806;53.548;9.964;2023-04-15T07:52:43;38.20;;;14.70;;
28613;SDS011;15806;53.548;9.964;2023-04-15T07:54:24;44.30;;;15.80;;
28613;SDS011;15806;53.548;9.964;2023-04-15T07:56:05;47.00;;;15.57;;
28613;SDS011;15806;53.548;9.964;2023-04-15T07:57:45;48.37;;;17.83;;
28613;SDS011;15806;53.548;9.964;2023-04-15T07:59:26;47.73;;;17.33;;
28613;SDS011;15806;53.548;9.964;2023-04-15T08:01:06;41.37;;;15.63;;
28613;SDS011;15806;53.548;9.964;2023-04-15T08:02:47;49.43;;;17.60;;
28613;SDS011;15806;53.548;9.964;2023-04-15T08:04:28;52.67;;;19.60;;
28613;SDS011;15806;53.548;9.964;2023-04-15T08:06:08;42.53;;;15.83;;
28613;SDS011;15806;53.548;9.964;2023-04-15T08:07:49;41.17;;;16.23;;
28613;SDS011;15806;53.548;9.964;2023-04-15T08:09:30;44.17;;;15.93;;
28613;SDS011;15806;53.548;9.964;2023-04-15T08:11:10;48.73;;;16.73;;
28613;SDS011;15806;53.548;9.964;2023-04-15T08:12:51;41.30;;;16.40;;
28613;SDS011;15806;53.548;9.964;2023-04-15T08:14:33;45.53;;;16.42;;
28613;SDS011;15806;53.548;9.964;2023-04-15T08:18:04;50.50;;;17.65;;
28613;SDS011;15806;53.548;9.964;2023-04-15T08:19:44;47.17;;;17.47;;
28613;SDS011;15806;53.548;9.964;2023-04-15T08:21:25;45.17;;;16.57;;
28613;SDS011;15806;53.548;9.964;2023-04-15T08:23:06;46.73;;;17.53;;
28613;SDS011;15806;53.548;9.964;2023-04-15T08:24:46;48.03;;;17.03;;
28613;SDS011;15806;53.548;9.964;2023-04-15T08:26:27;49.73;;;17.53;;
28613;SDS011;15806;53.548;9.964;2023-04-15T08:31:33;47.08;;;18.02;;
28613;SDS011;15806;53.548;9.964;2023-04-15T08:33:13;44.53;;;16.87;;
28613;SDS011;15806;53.548;9.964;2023-04-15T08:34:54;49.97;;;19.03;;
28613;SDS011;15806;53.548;9.964;2023-04-15T08:36:34;49.77;;;16.97;;
28613;SDS011;15806;53.548;9.964;2023-04-15T08:38:15;49.43;;;17.13;;
28613;SDS011;15806;53.548;9.964;2023-04-15T08:39:55;56.20;;;18.53;;
28613;SDS011;15806;53.548;9.964;2023-04-15T08:41:39;50.47;;;17.67;;
28613;SDS011;15806;53.548;9.964;2023-04-15T08:43:43;51.60;;;20.25;;
28613;SDS011;15806;53.548;9.964;2023-04-15T08:45:30;49.40;;;18.00;;
28613;SDS011;15806;53.548;9.964;2023-04-15T08:48:54;47.78;;;17.25;;
28613;SDS011;15806;53.548;9.964;2023-04-15T08:50:36;51.88;;;19.17;;
28613;SDS011;15806;53.548;9.964;2023-04-15T08:52:17;52.23;;;19.93;;
28613;SDS011;15806;53.548;9.964;2023-04-15T08:53:58;45.42;;;17.38;;
28613;SDS011;15806;53.548;9.964;2023-04-15T08:55:44;46.20;;;19.27;;
28613;SDS011;15806;53.548;9.964;2023-04-15T08:57:26;45.05;;;18.38;;
28613;SDS011;15806;53.548;9.964;2023-04-15T08:59:07;43.78;;;17.45;;
28613;SDS011;15806;53.548;9.964;2023-04-15T09:00:48;42.90;;;17.00;;
28613;SDS011;15806;53.548;9.964;2023-04-15T09:02:28;46.17;;;17.07;;
28613;SDS011;15806;53.548;9.964;2023-04-15T09:04:10;45.53;;;16.85;;
28613;SDS011;15806;53.548;9.964;2023-04-15T09:05:51;44.47;;;16.23;;
28613;SDS011;15806;53.548;9.964;2023-04-15T09:07:32;41.45;;;16.63;;
28613;SDS011;15806;53.548;9.964;2023-04-15T09:09:13;46.72;;;17.65;;
28613;SDS011;15806;53.548;9.964;2023-04-15T09:10:54;43.70;;;17.30;;
28613;SDS011;15806;53.548;9.964;2023-04-15T09:12:34;50.37;;;18.03;;
28613;SDS011;15806;53.548;9.964;2023-04-15T09:14:15;48.33;;;18.33;;
28613;SDS011;15806;53.548;9.964;2023-04-15T09:15:55;42.63;;;16.70;;
28613;SDS011;15806;53.548;9.964;2023-04-15T09:17:39;39.53;;;16.10;;
28613;SDS011;15806;53.548;9.964;2023-04-15T09:19:23;42.08;;;15.90;;
28613;SDS011;15806;53.548;9.964;2023-04-15T09:21:07;47.05;;;17.58;;
28613;SDS011;15806;53.548;9.964;2023-04-15T09:22:52;38.60;;;15.13;;
28613;SDS011;15806;53.548;9.964;2023-04-15T09:24:34;45.67;;;17.83;;
28613;SDS011;15806;53.548;9.964;2023-04-15T09:26:16;44.65;;;17.50;;
28613;SDS011;15806;53.548;9.964;2023-04-15T09:27:58;43.93;;;16.53;;
28613;SDS011;15806;53.548;9.964;2023-04-15T09:29:40;45.67;;;16.23;;
28613;SDS011;15806;53.548;9.964;2023-04-15T09:31:27;45.50;;;16.23;;
28613;SDS011;15806;53.548;9.964;2023-04-15T09:33:08;42.13;;;17.00;;
28613;SDS011;15806;53.548;9.964;2023-04-15T09:34:49;43.33;;;16.47;;
28613;SDS011;15806;53.548;9.964;2023-04-15T09:36:37;42.07;;;16.83;;
28613;SDS011;15806;53.548;9.964;2023-04-15T09:38:25;44.65;;;16.27;;
28613;SDS011;15806;53.548;9.964;2023-04-15T09:40:06;48.00;;;17.15;;
28613;SDS011;15806;53.548;9.964;2023-04-15T09:42:03;45.53;;;15.93;;
28613;SDS011;15806;53.548;9.964;2023-04-15T09:43:47;42.25;;;17.13;;
28613;SDS011;15806;53.548;9.964;2023-04-15T09:45:28;40.03;;;16.43;;
28613;SDS011;15806;53.548;9.964;2023-04-15T09:47:08;43.88;;;16.70;;
28613;SDS011;15806;53.548;9.964;2023-04-15T09:49:09;45.53;;;16.27;;
28613;SDS011;15806;53.548;9.964;2023-04-15T09:50:50;44.00;;;17.55;;
28613;SDS011;15806;53.548;9.964;2023-04-15T09:52:32;46.50;;;17.83;;
28613;SDS011;15806;53.548;9.964;2023-04-15T09:54:12;41.97;;;18.10;;
28613;SDS011;15806;53.548;9.964;2023-04-15T09:55:59;38.55;;;16.45;;
28613;SDS011;15806;53.548;9.964;2023-04-15T09:57:39;39.80;;;17.43;;
28613;SDS011;15806;53.548;9.964;2023-04-15T09:59:20;39.37;;;16.33;;
28613;SDS011;15806;53.548;9.964;2023-04-15T10:01:02;44.70;;;17.63;;
28613;SDS011;15806;53.548;9.964;2023-04-15T10:02:43;39.10;;;15.95;;
28613;SDS011;15806;53.548;9.964;2023-04-15T10:04:26;40.45;;;16.35;;
28613;SDS011;15806;53.548;9.964;2023-04-15T10:06:07;35.45;;;15.60;;
28613;SDS011;15806;53.548;9.964;2023-04-15T10:07:48;40.40;;;15.45;;
28613;SDS011;15806;53.548;9.964;2023-04-15T10:09:29;36.23;;;15.33;;
28613;SDS011;15806;53.548;9.964;2023-04-15T10:11:10;40.58;;;15.77;;
28613;SDS011;15806;53.548;9.964;2023-04-15T10:12:51;37.33;;;16.23;;